Time;durP1;ratioP1;P1;durP2;ratioP2;P2;SDS_P1;SDS_P2;PMS_P1;PMS_P2;Temp;Humidity;BMP_temperature;BMP_pressure;BME280_temperature;BME280_humidity;BME280_pressure;Samples;Min_cycle;Max_cycle;Signal;HPM_P1;HPM_P2
2021/08/13 00:00:39;;;;;;;21.05;18.85;;;;;;;15.03;82.78;99603.20;124790;1093;64223;-80
2021/08/13 00:03:13;;;;;;;21.30;19.07;;;;;;;14.99;82.79;99602.59;124796;1093;64287;-80
2021/08/13 00:05:41;;;;;;;20.87;18.67;;;;;;;14.99;83.31;99599.90;124783;1093;64241;-80
2021/08/13 00:08:08;;;;;;;20.43;17.90;;;;;;;15.03;83.24;99595.99;124735;1093;64277;-80
2021/08/13 00:10:36;;;;;;;20.90;17.80;;;;;;;15.03;83.12;99601.36;124800;1093;64363;-80
2021/08/13 00:13:04;;;;;;;20.10;17.50;;;;;;;14.98;82.96;99600.88;124745;1093;64460;-80
2021/08/13 00:15:30;;;;;;;18.80;16.87;;;;;;;14.96;83.19;99594.77;124789;1093;64419;-80
2021/08/13 00:17:57;;;;;;;18.50;16.67;;;;;;;14.99;83.62;99594.53;124794;1093;64225;-79
2021/08/13 00:20:24;;;;;;;19.27;15.40;;;;;;;15.03;84.08;99598.67;124828;1093;64284;-80
2021/08/13 00:22:51;;;;;;;16.00;14.40;;;;;;;15.05;83.89;99591.38;124751;1093;64277;-81
2021/08/13 00:25:19;;;;;;;17.00;15.35;;;;;;;15.06;83.83;99592.22;124884;1093;64303;-81
2021/08/13 00:27:46;;;;;;;16.55;14.95;;;;;;;15.05;83.97;99594.05;124870;1093;64211;-79
2021/08/13 00:30:12;;;;;;;15.93;14.37;;;;;;;15.04;84.16;99594.19;124782;1092;64277;-80
2021/08/13 00:32:39;;;;;;;15.83;13.90;;;;;;;15.03;84.06;99595.14;124777;1093;64394;-80
2021/08/13 00:35:06;;;;;;;16.23;14.13;;;;;;;15.02;83.93;99596.13;124816;1093;64271;-80
2021/08/13 00:37:33;;;;;;;16.55;13.85;;;;;;;14.99;84.43;99589.16;124790;1093;64323;-80
2021/08/13 00:39:59;;;;;;;15.40;13.63;;;;;;;14.99;84.25;99586.48;124782;1093;64264;-80
2021/08/13 00:42:26;;;;;;;18.93;14.80;;;;;;;14.99;84.57;99591.84;124869;1093;64404;-80
2021/08/13 00:44:52;;;;;;;15.95;14.30;;;;;;;15.00;84.62;99598.91;124903;1093;64246;-80
2021/08/13 00:47:19;;;;;;;14.67;13.17;;;;;;;14.99;84.58;99597.22;124889;1092;64811;-80
2021/08/13 00:49:45;;;;;;;17.03;14.10;;;;;;;14.92;84.58;99604.86;124857;1092;64291;-80
2021/08/13 00:52:13;;;;;;;14.35;12.85;;;;;;;14.84;84.34;99601.05;124885;1093;64332;-80
2021/08/13 00:54:39;;;;;;;15.70;14.17;;;;;;;14.82;84.62;99605.66;124888;1093;64409;-80
2021/08/13 00:57:06;;;;;;;17.57;15.10;;;;;;;14.77;84.32;99592.62;124897;1093;64264;-80
2021/08/13 00:59:34;;;;;;;16.90;14.55;;;;;;;14.78;84.77;99594.31;124891;1092;64284;-80
2021/08/13 01:02:00;;;;;;;16.10;14.40;;;;;;;14.79;84.87;99595.17;124846;1093;64328;-80
2021/08/13 01:04:27;;;;;;;16.23;13.87;;;;;;;14.75;84.57;99596.38;124890;1093;64410;-80
2021/08/13 01:06:53;;;;;;;15.87;14.27;;;;;;;14.71;84.94;99601.10;124890;1093;64622;-80
2021/08/13 01:09:20;;;;;;;15.43;13.80;;;;;;;14.67;84.75;99595.12;124850;1093;64737;-81
2021/08/13 01:12:01;;;;;;;16.10;14.50;;;;;;;14.66;84.99;99603.27;124873;1093;64274;-80
2021/08/13 01:14:58;;;;;;;16.40;14.87;;;;;;;14.64;85.17;99595.35;124862;1093;64258;-80
2021/08/13 01:17:30;;;;;;;14.70;13.40;;;;;;;14.63;84.89;99595.45;124855;1093;64366;-80
2021/08/13 01:20:04;;;;;;;15.83;14.23;;;;;;;14.66;85.26;99600.59;124907;1093;64284;-80
2021/08/13 01:22:48;;;;;;;15.30;13.70;;;;;;;14.64;85.00;99591.79;124887;1093;64266;-80
2021/08/13 01:25:20;;;;;;;15.17;13.60;;;;;;;14.62;85.09;99596.44;124852;1093;64228;-80
2021/08/13 01:27:50;;;;;;;14.50;13.00;;;;;;;14.62;84.90;99599.12;124822;1093;64398;-80
2021/08/13 01:30:19;;;;;;;15.47;14.03;;;;;;;14.56;85.02;99600.43;124895;1093;64271;-80
2021/08/13 01:33:08;;;;;;;16.20;14.60;;;;;;;14.54;84.88;99596.15;124882;1093;64191;-80
2021/08/13 01:35:42;;;;;;;15.70;14.10;;;;;;;14.51;85.48;99597.20;124922;1091;64213;-80
2021/08/13 01:38:18;;;;;;;17.43;15.03;;;;;;;14.45;85.22;99593.11;124873;1093;64268;-80
2021/08/13 01:40:48;;;;;;;15.47;13.97;;;;;;;14.43;85.39;99596.91;124912;1093;64290;-80
2021/08/13 01:43:17;;;;;;;15.13;13.63;;;;;;;14.42;85.13;99593.34;124907;1091;64287;-80
2021/08/13 01:45:45;;;;;;;18.37;14.43;;;;;;;14.38;85.58;99599.91;124908;1093;64274;-80
2021/08/13 01:48:12;;;;;;;17.90;15.83;;;;;;;14.40;85.85;99589.94;124871;1093;64407;-80
2021/08/13 01:50:41;;;;;;;19.10;15.00;;;;;;;14.41;85.98;99594.33;124883;1093;64306;-80
2021/08/13 01:53:09;;;;;;;15.30;13.83;;;;;;;14.40;85.95;99592.63;124913;1092;64428;-80
2021/08/13 01:55:36;;;;;;;14.47;13.00;;;;;;;14.36;85.90;99587.59;124916;1093;64382;-80
2021/08/13 01:58:03;;;;;;;17.30;15.57;;;;;;;14.34;86.09;99595.73;124923;1093;64210;-80
2021/08/13 02:00:31;;;;;;;18.47;16.60;;;;;;;14.34;86.29;99592.20;124922;1093;64156;-80
2021/08/13 02:03:00;;;;;;;19.13;16.57;;;;;;;14.37;86.60;99591.97;124870;1093;64283;-80
2021/08/13 02:05:30;;;;;;;17.37;15.37;;;;;;;14.41;86.89;99588.96;124864;1093;64287;-80
2021/08/13 02:07:58;;;;;;;17.75;15.95;;;;;;;14.44;86.84;99594.09;124964;1093;64293;-80
2021/08/13 02:10:26;;;;;;;18.40;15.00;;;;;;;14.45;86.86;99593.11;124888;1092;64242;-80
2021/08/13 02:12:52;;;;;;;17.03;15.43;;;;;;;14.45;86.79;99590.43;124869;1093;64375;-80
2021/08/13 02:15:19;;;;;;;16.57;14.70;;;;;;;14.47;86.81;99587.65;124860;1093;64274;-80
2021/08/13 02:17:54;;;;;;;16.30;14.80;;;;;;;14.48;86.83;99590.23;124911;1093;64223;-80
2021/08/13 02:20:22;;;;;;;15.73;14.10;;;;;;;14.46;86.70;99589.48;124990;1092;64303;-80
2021/08/13 02:22:49;;;;;;;16.63;13.63;;;;;;;14.46;86.64;99591.31;124886;1093;64268;-80
2021/08/13 02:25:15;;;;;;;16.43;14.83;;;;;;;14.43;86.54;99594.23;124899;1093;64237;-80
2021/08/13 02:27:43;;;;;;;19.50;15.70;;;;;;;14.44;86.87;99588.73;124897;1092;64345;-80
2021/08/13 02:30:10;;;;;;;18.70;16.03;;;;;;;14.43;86.82;99586.18;124841;1093;64335;-80
2021/08/13 02:32:37;;;;;;;18.33;16.50;;;;;;;14.39;86.51;99592.72;124898;1093;64300;-80
2021/08/13 02:35:06;;;;;;;18.47;16.50;;;;;;;14.36;87.08;99580.39;124858;1093;64268;-80
2021/08/13 02:37:37;;;;;;;19.20;17.03;;;;;;;14.33;87.00;99575.27;124916;1093;64284;-80
2021/08/13 02:40:18;;;;;;;16.80;15.20;;;;;;;14.30;86.98;99575.49;124890;1093;64335;-80
2021/08/13 02:43:09;;;;;;;18.60;16.80;;;;;;;14.26;87.14;99582.88;124834;1092;64313;-80
2021/08/13 02:45:39;;;;;;;15.50;14.07;;;;;;;14.25;87.04;99577.65;124907;1092;64271;-80
2021/08/13 02:48:06;;;;;;;16.70;15.08;;;;;;;14.20;86.93;99583.34;124879;1093;64750;-80
2021/08/13 02:50:38;;;;;;;16.33;14.73;;;;;;;14.16;86.94;99587.19;124899;1093;64411;-80
2021/08/13 02:53:07;;;;;;;16.63;15.03;;;;;;;14.13;86.68;99591.94;124935;1093;64281;-80
2021/08/13 02:55:41;;;;;;;18.95;17.13;;;;;;;14.12;87.22;99590.23;124894;1093;64359;-80
2021/08/13 02:58:10;;;;;;;19.87;17.93;;;;;;;14.09;87.31;99583.27;124845;1093;64530;-80
2021/08/13 03:00:43;;;;;;;21.73;19.50;;;;;;;14.09;87.62;99580.59;124961;1093;64245;-80
2021/08/13 03:03:11;;;;;;;18.80;16.95;;;;;;;14.08;87.47;99575.33;124911;1093;64393;-80
2021/08/13 03:05:46;;;;;;;18.70;16.83;;;;;;;14.03;87.33;99581.89;124889;1093;64407;-80
2021/08/13 03:08:13;;;;;;;17.20;15.53;;;;;;;14.00;87.23;99583.91;124883;1092;64400;-80
2021/08/13 03:10:40;;;;;;;19.07;17.17;;;;;;;13.99;87.72;99590.25;124900;1093;64293;-80
2021/08/13 03:13:08;;;;;;;22.23;17.93;;;;;;;14.01;87.91;99585.64;124831;1093;64362;-80
2021/08/13 03:15:35;;;;;;;18.93;17.13;;;;;;;14.04;88.04;99583.59;124870;1091;64306;-80
2021/08/13 03:18:03;;;;;;;20.60;18.53;;;;;;;14.07;87.89;99589.70;124883;1093;64194;-80
2021/08/13 03:20:29;;;;;;;19.37;17.47;;;;;;;14.08;87.61;99594.09;124898;1093;64437;-80
2021/08/13 03:22:56;;;;;;;19.80;17.60;;;;;;;14.08;87.75;99594.09;124882;1093;64428;-80
2021/08/13 03:25:23;;;;;;;18.80;17.10;;;;;;;14.08;87.42;99594.94;124872;1093;64254;-80
2021/08/13 03:27:50;;;;;;;20.77;18.57;;;;;;;14.09;87.59;99595.81;124892;1092;64211;-80
2021/08/13 03:30:17;;;;;;;20.85;18.85;;;;;;;14.10;87.71;99587.65;124870;1093;64220;-80
2021/08/13 03:32:47;;;;;;;21.27;19.17;;;;;;;14.11;87.79;99585.81;124880;1093;64329;-80
2021/08/13 03:35:15;;;;;;;19.70;17.67;;;;;;;14.14;87.61;99586.47;124919;1093;64389;-80
2021/08/13 03:37:42;;;;;;;19.00;17.20;;;;;;;14.18;87.54;99585.27;124888;1092;64265;-80
2021/08/13 03:40:09;;;;;;;18.77;16.77;;;;;;;14.22;87.46;99580.56;124885;1093;64355;-80
2021/08/13 03:42:35;;;;;;;17.60;15.90;;;;;;;14.27;87.34;99583.77;124846;1093;64223;-80
2021/08/13 03:45:02;;;;;;;18.87;17.10;;;;;;;14.25;87.28;99583.02;124823;1093;64389;-80
2021/08/13 03:47:29;;;;;;;19.73;17.03;;;;;;;14.34;87.31;99574.28;124910;1093;64322;-80
2021/08/13 03:49:55;;;;;;;18.00;16.40;;;;;;;14.43;87.39;99570.94;124860;1093;64284;-80
2021/08/13 03:52:22;;;;;;;17.63;15.77;;;;;;;14.53;86.97;99567.59;124867;1093;64284;-80
2021/08/13 03:54:48;;;;;;;20.13;17.83;;;;;;;14.68;86.90;99566.45;124934;1093;64267;-80
2021/08/13 03:57:15;;;;;;;20.07;18.17;;;;;;;15.11;86.46;99569.45;124918;1093;64856;-80
2021/08/13 03:59:41;;;;;;;18.90;17.10;;;;;;;15.82;85.13;99572.02;124854;1093;64332;-80
2021/08/13 04:02:08;;;;;;;18.87;17.07;;;;;;;16.37;83.80;99578.31;124896;1093;64358;-80
2021/08/13 04:04:34;;;;;;;17.20;15.63;;;;;;;16.86;82.83;99573.45;124951;1093;64268;-80
2021/08/13 04:07:00;;;;;;;17.25;15.70;;;;;;;17.30;82.21;99576.92;124927;1092;64393;-80
2021/08/13 04:09:27;;;;;;;16.57;15.07;;;;;;;17.51;81.62;99572.38;124763;1093;64393;-81
2021/08/13 04:11:53;;;;;;;15.67;14.30;;;;;;;17.81;80.93;99568.02;124969;1093;64391;-80
2021/08/13 04:14:20;;;;;;;16.73;15.00;;;;;;;18.32;79.72;99558.95;124856;1093;64245;-81
2021/08/13 04:16:47;;;;;;;14.43;13.10;;;;;;;18.81;79.01;99559.92;124971;1093;64280;-81
2021/08/13 04:19:13;;;;;;;13.93;12.57;;;;;;;19.19;77.79;99551.94;124911;1093;64281;-81
2021/08/13 04:21:40;;;;;;;13.90;12.43;;;;;;;19.24;77.33;99560.47;124858;1093;64237;-79
2021/08/13 04:24:06;;;;;;;12.87;11.67;;;;;;;18.97;77.25;99567.45;124806;1093;64335;-79
2021/08/13 04:26:33;;;;;;;13.20;12.00;;;;;;;18.55;77.07;99558.73;124854;1093;64241;-79
2021/08/13 04:28:59;;;;;;;13.27;11.97;;;;;;;18.15;76.79;99573.13;124941;1093;64377;-79
2021/08/13 04:31:25;;;;;;;14.27;12.83;;;;;;;17.79;77.58;99572.69;124879;1093;64271;-79
2021/08/13 04:33:52;;;;;;;14.67;12.93;;;;;;;17.51;77.74;99580.45;124844;1092;64242;-79
2021/08/13 04:36:18;;;;;;;14.20;12.87;;;;;;;17.34;77.70;99578.35;124868;1093;64757;-79
2021/08/13 04:38:45;;;;;;;14.40;13.10;;;;;;;17.18;78.21;99586.04;124814;1093;64218;-79
2021/08/13 04:41:11;;;;;;;13.67;12.30;;;;;;;17.07;78.46;99585.11;124878;1092;64268;-79
2021/08/13 04:43:38;;;;;;;14.87;11.60;;;;;;;16.93;78.13;99574.66;124873;1093;64386;-79
2021/08/13 04:46:04;;;;;;;13.90;12.60;;;;;;;16.80;78.33;99598.20;124809;1093;64273;-79
2021/08/13 04:48:31;;;;;;;15.45;13.65;;;;;;;16.78;78.96;99590.24;124843;1093;64403;-79
2021/08/13 04:50:57;;;;;;;15.67;14.17;;;;;;;16.78;78.61;99597.47;124810;1092;64212;-79
2021/08/13 04:53:24;;;;;;;17.13;15.43;;;;;;;16.79;78.82;99596.48;124791;1093;64267;-79
2021/08/13 04:55:50;;;;;;;16.13;14.53;;;;;;;16.79;78.81;99591.94;124777;1092;64299;-79
2021/08/13 04:58:16;;;;;;;16.77;13.67;;;;;;;16.97;78.85;99592.25;124755;1092;64412;-80
2021/08/13 05:00:43;;;;;;;13.13;11.77;;;;;;;17.31;78.15;99587.55;124818;1093;64280;-80
2021/08/13 05:03:09;;;;;;;14.33;12.50;;;;;;;17.34;77.88;99592.67;124870;1093;64199;-80
2021/08/13 05:05:36;;;;;;;18.13;16.20;;;;;;;17.45;77.48;99588.20;124918;1092;64249;-80
2021/08/13 05:08:04;;;;;;;16.63;15.03;;;;;;;17.87;76.95;99585.49;124833;1093;64281;-80
2021/08/13 05:10:31;;;;;;;15.60;14.10;;;;;;;18.42;76.17;99589.52;124832;1093;64290;-80
2021/08/13 05:12:57;;;;;;;16.30;14.70;;;;;;;18.73;75.87;99586.75;124857;1093;64271;-80
2021/08/13 05:15:24;;;;;;;16.57;13.60;;;;;;;19.15;75.50;99582.96;124888;1093;64307;-80
2021/08/13 05:17:50;;;;;;;16.00;13.80;;;;;;;19.45;74.84;99585.47;124904;1093;64241;-80
2021/08/13 05:20:17;;;;;;;16.13;11.40;;;;;;;19.63;73.72;99585.58;124881;1093;64309;-80
2021/08/13 05:22:43;;;;;;;13.33;12.03;;;;;;;19.79;73.12;99587.70;124790;1092;64305;-80
2021/08/13 05:25:14;;;;;;;12.90;11.60;;;;;;;20.00;72.46;99587.48;124807;1093;64695;-80
2021/08/13 05:27:40;;;;;;;12.40;11.10;;;;;;;20.12;72.17;99590.87;124819;1091;64309;-80
2021/08/13 05:30:09;;;;;;;11.93;10.70;;;;;;;20.32;71.48;99591.61;124830;1093;64191;-80
2021/08/13 05:32:43;;;;;;;10.23;9.17;;;;;;;20.48;71.45;99594.50;124857;1093;64281;-80
2021/08/13 05:35:10;;;;;;;10.23;9.23;;;;;;;20.65;70.71;99583.91;124811;1093;64312;-80
2021/08/13 05:37:38;;;;;;;10.07;9.13;;;;;;;20.78;70.58;99596.07;124806;1092;64581;-80
2021/08/13 05:40:05;;;;;;;10.60;9.60;;;;;;;20.91;70.14;99592.98;124859;1093;64389;-80
2021/08/13 05:42:32;;;;;;;11.30;10.07;;;;;;;20.99;70.00;99589.50;124924;1093;64405;-80
2021/08/13 05:44:58;;;;;;;13.27;9.03;;;;;;;21.02;69.94;99590.04;124907;1093;64271;-80
2021/08/13 05:47:25;;;;;;;10.63;9.53;;;;;;;21.19;69.78;99592.89;124976;1091;64367;-80
2021/08/13 05:49:51;;;;;;;10.50;9.43;;;;;;;21.31;68.80;99588.94;124950;1092;64241;-80
2021/08/13 05:52:18;;;;;;;10.13;9.23;;;;;;;21.19;68.51;99592.89;124865;1093;64421;-80
2021/08/13 05:54:44;;;;;;;10.70;9.60;;;;;;;21.26;67.94;99592.11;124930;1093;64245;-80
2021/08/13 05:57:11;;;;;;;11.90;9.00;;;;;;;21.39;67.14;99590.90;124895;1093;64249;-80
2021/08/13 05:59:37;;;;;;;9.97;8.73;;;;;;;21.41;67.86;99592.44;124912;1092;64395;-80
2021/08/13 06:02:03;;;;;;;10.60;9.70;;;;;;;21.55;66.95;99584.74;124922;1093;64290;-80
2021/08/13 06:04:30;;;;;;;11.95;10.75;;;;;;;21.71;66.68;99576.70;124924;1092;64306;-80
2021/08/13 06:06:56;;;;;;;12.23;11.00;;;;;;;21.89;66.03;99577.50;124864;1092;64386;-80
2021/08/13 06:09:23;;;;;;;12.43;11.13;;;;;;;22.14;66.28;99573.05;124901;1093;64307;-80
2021/08/13 06:11:49;;;;;;;12.30;10.03;;;;;;;22.01;65.46;99569.94;124897;1093;64268;-80
2021/08/13 06:14:16;;;;;;;12.03;10.20;;;;;;;21.57;66.19;99577.30;124942;1092;64418;-80
2021/08/13 06:16:42;;;;;;;12.05;10.80;;;;;;;21.31;66.36;99577.25;124944;1093;64271;-80
2021/08/13 06:19:09;;;;;;;11.43;10.23;;;;;;;21.18;66.82;99586.63;124955;1093;64271;-80
2021/08/13 06:21:36;;;;;;;12.10;10.63;;;;;;;21.16;66.63;99587.78;124851;1093;64188;-80
2021/08/13 06:24:02;;;;;;;12.50;10.80;;;;;;;21.18;67.08;99580.36;124880;1093;64310;-80
2021/08/13 06:26:29;;;;;;;13.00;11.80;;;;;;;21.29;66.80;99573.83;124887;1093;64333;-80
2021/08/13 06:28:55;;;;;;;14.03;10.40;;;;;;;21.34;66.57;99583.19;124892;1093;64386;-80
2021/08/13 06:31:22;;;;;;;12.43;10.53;;;;;;;21.54;66.72;99573.05;124909;1093;64247;-80
2021/08/13 06:33:49;;;;;;;12.27;11.07;;;;;;;21.74;66.55;99570.95;124898;1093;64282;-81
2021/08/13 06:36:16;;;;;;;11.75;10.60;;;;;;;21.77;66.04;99578.77;124860;1093;64332;-82
2021/08/13 06:38:42;;;;;;;11.03;9.87;;;;;;;21.89;66.35;99573.94;124851;1093;64437;-81
2021/08/13 06:41:09;;;;;;;10.83;9.83;;;;;;;22.16;66.06;99572.03;124954;1093;64217;-81
2021/08/13 06:43:35;;;;;;;10.90;9.90;;;;;;;22.41;65.55;99579.30;124866;1093;64296;-81
2021/08/13 06:46:02;;;;;;;11.23;10.13;;;;;;;22.78;65.10;99575.33;124850;1093;64281;-81
2021/08/13 06:48:28;;;;;;;11.30;10.20;;;;;;;23.12;64.95;99572.50;124830;1093;64292;-81
2021/08/13 06:50:55;;;;;;;10.00;9.20;;;;;;;23.37;64.12;99567.05;124929;1093;64386;-79
2021/08/13 06:53:21;;;;;;;9.83;8.67;;;;;;;23.71;64.06;99571.44;124854;1092;64294;-81
2021/08/13 06:55:48;;;;;;;10.30;9.25;;;;;;;23.73;63.81;99573.00;124843;1093;64296;-79
2021/08/13 06:58:14;;;;;;;9.87;8.87;;;;;;;23.80;63.60;99574.01;124877;1093;64389;-81
2021/08/13 07:00:41;;;;;;;10.33;9.33;;;;;;;23.75;63.13;99579.13;124847;1092;64344;-81
2021/08/13 07:03:08;;;;;;;11.63;9.37;;;;;;;23.58;63.28;99582.84;124906;1093;64287;-81
2021/08/13 07:05:34;;;;;;;10.43;9.33;;;;;;;23.46;63.66;99585.08;124886;1093;64316;-81
2021/08/13 07:08:09;;;;;;;10.67;9.67;;;;;;;23.32;63.68;99577.59;124853;1093;64188;-81
2021/08/13 07:10:36;;;;;;;13.47;10.10;;;;;;;23.39;63.73;99571.30;124852;1093;64267;-81
2021/08/13 07:13:04;;;;;;;11.50;10.00;;;;;;;23.34;63.54;99570.13;124943;1093;64388;-81
2021/08/13 07:15:31;;;;;;;11.27;10.17;;;;;;;23.36;63.81;99571.65;124934;1093;64264;-83
2021/08/13 07:17:58;;;;;;;10.27;9.03;;;;;;;23.34;63.96;99562.80;124957;1092;64303;-83
2021/08/13 07:20:24;;;;;;;10.67;9.57;;;;;;;23.35;64.06;99572.65;124879;1091;64245;-83
2021/08/13 07:22:52;;;;;;;10.23;9.20;;;;;;;23.48;63.64;99574.02;124935;1092;64188;-83
2021/08/13 07:25:18;;;;;;;10.37;9.20;;;;;;;23.62;63.52;99565.17;124940;1093;64271;-83
2021/08/13 07:27:45;;;;;;;13.00;10.07;;;;;;;23.69;63.16;99565.31;124887;1093;64316;-83
2021/08/13 07:30:12;;;;;;;11.90;9.70;;;;;;;23.68;62.87;99571.78;124843;1093;64194;-83
2021/08/13 07:32:39;;;;;;;9.50;8.57;;;;;;;23.76;63.61;99577.24;124856;1093;64280;-83
2021/08/13 07:35:06;;;;;;;9.80;8.77;;;;;;;23.95;63.21;99581.44;124887;1093;64232;-83
2021/08/13 07:37:33;;;;;;;10.87;9.20;;;;;;;24.14;63.55;99580.19;124845;1092;64422;-83
2021/08/13 07:39:59;;;;;;;9.63;8.63;;;;;;;24.17;61.69;99583.42;124911;1093;64606;-82
2021/08/13 07:42:27;;;;;;;11.43;9.03;;;;;;;24.16;62.13;99587.16;124957;1093;64287;-83
2021/08/13 07:44:54;;;;;;;9.40;8.47;;;;;;;24.14;61.52;99593.80;124928;1093;64316;-83
2021/08/13 07:47:21;;;;;;;8.97;8.10;;;;;;;24.03;62.08;99590.43;124900;1093;64327;-83
2021/08/13 07:49:47;;;;;;;8.30;7.60;;;;;;;24.08;62.31;99588.03;124914;1093;64395;-83
2021/08/13 07:52:14;;;;;;;9.93;8.47;;;;;;;24.15;62.20;99585.47;124904;1093;64245;-83
2021/08/13 07:54:40;;;;;;;10.10;8.30;;;;;;;24.26;62.00;99586.95;124898;1093;64421;-83
2021/08/13 07:57:07;;;;;;;9.20;8.30;;;;;;;24.27;61.83;99589.48;124856;1093;64217;-83
2021/08/13 07:59:35;;;;;;;9.27;8.33;;;;;;;24.32;61.80;99581.64;124949;1093;64287;-83
2021/08/13 08:02:01;;;;;;;8.57;7.67;;;;;;;24.46;61.83;99588.27;124938;1093;64367;-83
2021/08/13 08:04:28;;;;;;;8.60;7.73;;;;;;;24.48;61.49;99585.34;124876;1093;64782;-83
2021/08/13 08:06:56;;;;;;;10.93;8.20;;;;;;;24.60;61.61;99591.27;124881;1093;64495;-83
2021/08/13 08:09:24;;;;;;;9.50;8.50;;;;;;;24.64;61.12;99590.70;124871;1093;64373;-83
2021/08/13 08:11:51;;;;;;;8.63;7.73;;;;;;;24.60;60.62;99599.45;124850;1093;64271;-83
2021/08/13 08:14:18;;;;;;;8.67;7.90;;;;;;;24.59;60.61;99598.57;124823;1093;64704;-83
2021/08/13 08:16:45;;;;;;;8.53;7.70;;;;;;;24.63;60.73;99599.08;124864;1093;64324;-84
2021/08/13 08:19:12;;;;;;;8.97;7.50;;;;;;;24.65;60.17;99597.88;124890;1093;64287;-81
2021/08/13 08:21:39;;;;;;;7.97;7.27;;;;;;;24.66;59.76;99601.44;124925;1093;64275;-81
2021/08/13 08:24:05;;;;;;;8.00;7.20;;;;;;;24.68;60.83;99596.67;124906;1093;64194;-81
2021/08/13 08:26:32;;;;;;;7.97;7.23;;;;;;;24.74;60.19;99593.22;124941;1093;64897;-81
2021/08/13 08:28:58;;;;;;;9.07;7.17;;;;;;;24.69;60.31;99593.75;124934;1093;64300;-81
2021/08/13 08:31:25;;;;;;;8.10;7.37;;;;;;;24.74;60.18;99595.94;124932;1093;64338;-81
2021/08/13 08:33:51;;;;;;;8.50;7.10;;;;;;;24.78;60.19;99599.14;124897;1093;64274;-82
2021/08/13 08:36:18;;;;;;;7.93;7.00;;;;;;;24.88;60.63;99597.04;124846;1093;64319;-81
2021/08/13 08:38:44;;;;;;;8.57;7.40;;;;;;;25.05;60.24;99597.80;124949;1093;64388;-82
2021/08/13 08:41:11;;;;;;;7.60;6.73;;;;;;;25.11;59.29;99600.63;124878;1093;64392;-82
2021/08/13 08:43:37;;;;;;;8.33;7.53;;;;;;;25.11;59.00;99599.79;124896;1092;64268;-82
2021/08/13 08:46:04;;;;;;;8.30;7.50;;;;;;;25.16;59.15;99598.24;124886;1093;64268;-82
2021/08/13 08:48:36;;;;;;;7.50;6.90;;;;;;;25.33;59.62;99598.11;124874;1093;64322;-82
2021/08/13 08:51:05;;;;;;;7.60;7.00;;;;;;;25.46;58.39;99609.28;124955;1093;64511;-82
2021/08/13 08:53:33;;;;;;;7.30;6.65;;;;;;;25.53;58.09;99601.19;124905;1093;64265;-82
2021/08/13 08:56:00;;;;;;;7.63;6.37;;;;;;;25.68;58.53;99593.88;124825;1093;64267;-82
2021/08/13 08:58:33;;;;;;;7.70;6.97;;;;;;;25.88;58.43;99590.63;124878;1093;64267;-82
2021/08/13 09:01:00;;;;;;;9.10;6.77;;;;;;;25.99;58.52;99598.39;124887;1093;64281;-82
2021/08/13 09:03:27;;;;;;;8.67;6.50;;;;;;;26.12;58.36;99598.58;124876;1093;64294;-82
2021/08/13 09:05:54;;;;;;;7.00;6.30;;;;;;;26.18;58.18;99602.44;124875;1093;64335;-82
2021/08/13 09:08:20;;;;;;;7.45;6.70;;;;;;;26.28;57.06;99595.64;124889;1093;64390;-82
2021/08/13 09:10:47;;;;;;;7.23;6.37;;;;;;;26.32;56.82;99597.99;124900;1093;64268;-82
2021/08/13 09:13:13;;;;;;;8.63;6.90;;;;;;;26.44;56.36;99600.05;124878;1093;64312;-82
2021/08/13 09:15:42;;;;;;;7.80;6.70;;;;;;;26.58;56.58;99600.25;124876;1093;64302;-82
2021/08/13 09:18:23;;;;;;;7.50;6.80;;;;;;;26.76;56.16;99603.42;124905;1093;64268;-82
2021/08/13 09:20:55;;;;;;;7.27;6.50;;;;;;;26.75;55.27;99598.97;124865;1093;64264;-82
2021/08/13 09:23:44;;;;;;;7.03;6.33;;;;;;;27.12;55.43;99597.92;124921;1093;64482;-82
2021/08/13 09:26:20;;;;;;;6.80;6.10;;;;;;;27.45;54.09;99599.30;124866;1093;64223;-82
2021/08/13 09:28:58;;;;;;;6.57;6.07;;;;;;;27.87;54.27;99598.41;124876;1093;64284;-83
2021/08/13 09:31:33;;;;;;;7.20;6.43;;;;;;;28.21;53.51;99600.30;124871;1092;64303;-81
2021/08/13 09:34:13;;;;;;;6.83;6.23;;;;;;;28.51;52.85;99593.73;124930;1093;64271;-82
2021/08/13 09:36:49;;;;;;;6.70;6.10;;;;;;;28.62;52.09;99590.39;124963;1093;64197;-85
2021/08/13 09:39:22;;;;;;;6.57;5.97;;;;;;;28.49;51.26;99596.69;124890;1093;64332;-86
2021/08/13 09:41:52;;;;;;;6.90;6.40;;;;;;;28.32;50.95;99596.14;124932;1093;64352;-85
2021/08/13 09:44:26;;;;;;;7.60;6.17;;;;;;;28.13;51.21;99591.41;124933;1092;64245;-86
2021/08/13 09:47:02;;;;;;;6.60;6.00;;;;;;;27.91;51.20;99588.75;124859;1094;64300;-86
2021/08/13 09:49:30;;;;;;;6.40;5.80;;;;;;;27.87;52.62;99589.34;124858;1093;64276;-85
2021/08/13 09:51:57;;;;;;;6.07;5.57;;;;;;;27.99;52.14;99593.23;124851;1093;64245;-85
2021/08/13 09:54:27;;;;;;;5.40;4.90;;;;;;;28.05;50.50;99597.89;124844;1093;64377;-86
2021/08/13 09:56:53;;;;;;;6.60;5.83;;;;;;;28.10;50.61;99586.34;124919;1093;64329;-85
2021/08/13 09:59:20;;;;;;;5.63;5.10;;;;;;;28.04;50.63;99584.38;124872;1093;64245;-85
2021/08/13 10:01:49;;;;;;;6.60;5.90;;;;;;;28.15;51.40;99590.16;124858;1093;64306;-85
2021/08/13 10:04:18;;;;;;;5.47;4.97;;;;;;;28.40;51.36;99590.48;124929;1093;64292;-85
2021/08/13 10:06:46;;;;;;;6.83;4.65;;;;;;;28.58;50.42;99589.96;124820;1093;64358;-85
2021/08/13 10:09:24;;;;;;;5.30;4.80;;;;;;;28.68;49.87;99586.00;124919;1093;64277;-86
2021/08/13 10:12:01;;;;;;;8.30;5.80;;;;;;;28.81;49.08;99583.30;125029;1093;64290;-86
2021/08/13 10:14:31;;;;;;;5.37;4.87;;;;;;;28.85;48.70;99576.33;124794;1093;64191;-86
2021/08/13 10:17:19;;;;;;;6.17;5.67;;;;;;;28.94;47.98;99575.10;124943;1093;64265;-86
2021/08/13 10:19:48;;;;;;;5.50;5.00;;;;;;;29.07;47.98;99583.39;124883;1092;64386;-85
2021/08/13 10:22:16;;;;;;;6.90;4.97;;;;;;;29.08;47.32;99586.97;124873;1093;64272;-86
2021/08/13 10:24:44;;;;;;;6.13;5.47;;;;;;;29.00;48.12;99582.49;124895;1091;64647;-86
2021/08/13 10:27:18;;;;;;;6.87;4.90;;;;;;;28.95;48.15;99582.27;124880;1092;64284;-86
2021/08/13 10:29:47;;;;;;;5.33;4.93;;;;;;;28.91;48.83;99593.86;124927;1093;64197;-86
2021/08/13 10:32:19;;;;;;;5.53;5.03;;;;;;;28.90;47.94;99590.28;124898;1093;64292;-85
2021/08/13 10:34:46;;;;;;;5.77;5.30;;;;;;;29.02;48.18;99576.80;125213;1093;64281;-86
2021/08/13 10:37:14;;;;;;;6.47;5.97;;;;;;;29.10;48.56;99573.89;125086;1092;64286;-86
2021/08/13 10:39:42;;;;;;;5.37;4.87;;;;;;;29.30;47.93;99576.64;125022;1093;64284;-86
2021/08/13 10:42:18;;;;;;;5.97;4.43;;;;;;;29.36;47.80;99573.08;124888;1093;64366;-86
2021/08/13 10:45:03;;;;;;;5.93;5.30;;;;;;;29.32;47.69;99558.91;124867;1092;64479;-86
2021/08/13 10:47:34;;;;;;;5.80;4.97;;;;;;;29.35;48.37;99556.80;124901;1093;64316;-86
2021/08/13 10:50:03;;;;;;;6.27;5.30;;;;;;;29.33;48.11;99562.48;124879;1093;64264;-85
2021/08/13 10:52:36;;;;;;;4.70;4.30;;;;;;;29.32;48.00;99569.89;124734;1093;64268;-86
2021/08/13 10:55:07;;;;;;;4.90;4.50;;;;;;;29.35;48.52;99562.30;124906;1093;64332;-86
2021/08/13 10:57:49;;;;;;;4.73;4.30;;;;;;;29.40;48.62;99557.85;124867;1093;64306;-86
2021/08/13 11:00:17;;;;;;;5.77;5.27;;;;;;;29.38;48.86;99556.38;124868;1093;64216;-86
2021/08/13 11:03:19;;;;;;;5.60;5.07;;;;;;;29.33;48.95;99548.76;124852;1092;64337;-86
2021/08/13 11:05:54;;;;;;;5.07;4.33;;;;;;;29.35;48.04;99554.05;124848;1093;64271;-86
2021/08/13 11:08:21;;;;;;;4.87;4.27;;;;;;;29.29;48.53;99550.25;124897;1093;64267;-86
2021/08/13 11:10:48;;;;;;;5.37;4.87;;;;;;;29.31;48.37;99548.15;124915;1093;64389;-86
2021/08/13 11:13:18;;;;;;;5.03;4.53;;;;;;;29.27;47.23;99550.45;124849;1092;64408;-86
2021/08/13 11:15:46;;;;;;;5.37;4.43;;;;;;;29.35;48.08;99549.40;124902;1093;64262;-86
2021/08/13 11:18:36;;;;;;;6.63;4.80;;;;;;;29.44;47.03;99539.07;124829;1093;64284;-86
2021/08/13 11:21:05;;;;;;;5.40;4.33;;;;;;;29.49;45.81;99542.00;124873;1093;64274;-86